Time;durP1;ratioP1;P1;durP2;ratioP2;P2;SDS_P1;SDS_P2;PMS_P1;PMS_P2;Temp;Humidity;BMP_temperature;BMP_pressure;BME280_temperature;BME280_humidity;BME280_pressure;Samples;Min_cycle;Max_cycle;Signal;HPM_P1;HPM_P2
2021/12/06 00:00:51;;;;;;;;;4.00;2.67;;;;;8.86;61.33;100622.81;5071357;27;45534;-73
2021/12/06 00:03:24;;;;;;;;;2.67;2.67;;;;;8.86;60.59;100619.25;5065046;27;46029;-78
2021/12/06 00:05:51;;;;;;;;;2.00;1.00;;;;;8.87;60.82;100619.03;5068344;28;45800;-72
2021/12/06 00:08:16;;;;;;;;;2.00;2.00;;;;;8.85;60.60;100632.09;5073590;27;45830;-73
2021/12/06 00:10:42;;;;;;;;;4.00;3.00;;;;;8.83;60.68;100645.09;5071710;28;46451;-73
2021/12/06 00:13:08;;;;;;;;;2.67;2.00;;;;;8.75;60.92;100640.63;5073536;27;45457;-72
2021/12/06 00:15:33;;;;;;;;;4.00;3.00;;;;;8.80;60.99;100646.34;5070480;27;45594;-73
2021/12/06 00:18:00;;;;;;;;;2.00;2.00;;;;;8.78;60.79;100642.13;5073427;28;45908;-72
2021/12/06 00:20:26;;;;;;;;;4.33;3.00;;;;;8.69;61.04;100635.97;5074119;28;45624;-71
2021/12/06 00:22:52;;;;;;;;;2.33;2.33;;;;;8.70;61.31;100648.59;5073477;27;45840;-73
2021/12/06 00:25:18;;;;;;;;;3.00;2.00;;;;;8.69;61.38;100637.84;5071948;28;45500;-71
2021/12/06 00:27:44;;;;;;;;;1.33;1.33;;;;;8.67;61.46;100629.84;5072357;27;45871;-72
2021/12/06 00:30:15;;;;;;;;;4.00;4.00;;;;;8.69;62.10;100630.50;5072926;27;46026;-72
2021/12/06 00:32:41;;;;;;;;;4.33;4.00;;;;;8.73;61.61;100634.53;5072440;27;45925;-73
2021/12/06 00:35:11;;;;;;;;;2.67;2.67;;;;;8.74;61.70;100651.75;5073147;28;45756;-73
2021/12/06 00:37:43;;;;;;;;;3.33;2.00;;;;;8.74;61.77;100646.28;5072977;28;45573;-73
2021/12/06 00:40:11;;;;;;;;;3.00;3.00;;;;;8.77;62.08;100654.09;5073225;27;45779;-71
2021/12/06 00:42:37;;;;;;;;;5.00;3.00;;;;;8.75;61.99;100659.75;5072694;27;45541;-72
2021/12/06 00:45:05;;;;;;;;;6.67;3.00;;;;;8.76;62.11;100668.84;5072905;27;45509;-77
2021/12/06 00:47:31;;;;;;;;;4.00;4.00;;;;;8.78;61.96;100674.94;5067235;28;45490;-77
2021/12/06 00:49:56;;;;;;;;;3.67;3.67;;;;;8.79;62.37;100676.63;5076480;28;45380;-73
2021/12/06 00:52:23;;;;;;;;;3.00;3.00;;;;;8.79;62.50;100676.63;5072889;27;45588;-73
2021/12/06 00:54:49;;;;;;;;;3.00;3.00;;;;;8.83;62.35;100683.38;5071729;28;45465;-71
2021/12/06 00:57:16;;;;;;;;;2.00;1.33;;;;;8.86;62.02;100687.59;5070720;28;45843;-72
2021/12/06 00:59:42;;;;;;;;;1.67;1.67;;;;;8.90;62.18;100689.75;5072403;27;46331;-73
2021/12/06 01:02:09;;;;;;;;;2.33;2.33;;;;;8.92;62.17;100689.53;5072941;27;45466;-71
2021/12/06 01:04:37;;;;;;;;;4.33;4.33;;;;;8.94;62.13;100698.41;5073532;27;46018;-73
2021/12/06 01:07:04;;;;;;;;;4.67;3.67;;;;;8.96;62.21;100697.16;5072020;27;45788;-71
2021/12/06 01:09:29;;;;;;;;;3.67;2.00;;;;;8.95;61.72;100700.94;5072366;28;45940;-73
2021/12/06 01:11:55;;;;;;;;;3.33;3.00;;;;;8.93;62.02;100694.81;5072010;27;45639;-72
2021/12/06 01:14:20;;;;;;;;;3.00;2.67;;;;;8.91;62.09;100702.38;5072140;28;46001;-72
2021/12/06 01:16:46;;;;;;;;;3.00;3.00;;;;;8.95;61.89;100703.69;5071525;28;45641;-77
2021/12/06 01:19:13;;;;;;;;;4.33;4.00;;;;;8.92;62.68;100703.22;5065871;28;45966;-73
2021/12/06 01:21:47;;;;;;;;;6.33;2.00;;;;;8.93;63.17;100711.22;5072738;27;45559;-72
2021/12/06 01:24:16;;;;;;;;;3.67;3.67;;;;;8.93;62.80;100708.50;5073376;28;45775;-73
2021/12/06 01:29:38;;;;;;;;;3.33;3.33;;;;;8.87;62.91;100700.25;5071902;27;46002;-74
2021/12/06 01:40:10;;;;;;;;;3.33;3.33;;;;;8.91;63.26;100724.25;5071255;28;45708;-73
2021/12/06 01:42:35;;;;;;;;;7.00;2.00;;;;;8.95;63.47;100730.16;5072551;27;45383;-71
2021/12/06 01:45:03;;;;;;;;;4.33;3.33;;;;;8.93;63.36;100727.63;5071903;27;45734;-72
2021/12/06 01:47:32;;;;;;;;;3.33;3.00;;;;;8.96;63.53;100732.72;5073098;27;45888;-71
2021/12/06 01:50:20;;;;;;;;;4.00;2.00;;;;;8.97;63.63;100739.03;5071388;27;45616;-72
2021/12/06 01:52:54;;;;;;;;;7.67;2.67;;;;;8.93;63.46;100738.56;5070658;28;45371;-72
2021/12/06 01:55:25;;;;;;;;;2.67;2.67;;;;;8.95;63.41;100744.72;5065544;27;45344;-78
2021/12/06 01:57:53;;;;;;;;;4.67;3.00;;;;;8.95;63.24;100758.38;5075817;27;45424;-78
2021/12/06 02:00:25;;;;;;;;;5.00;4.00;;;;;8.91;63.51;100765.28;5073932;28;46907;-78
2021/12/06 02:02:50;;;;;;;;;5.33;3.00;;;;;8.89;63.93;100764.66;5076896;27;45911;-78
2021/12/06 02:05:16;;;;;;;;;2.00;2.00;;;;;8.93;63.58;100762.34;5076599;27;45433;-78
2021/12/06 02:07:41;;;;;;;;;2.00;2.00;;;;;8.91;63.37;100756.25;5066482;27;45547;-76
2021/12/06 02:10:08;;;;;;;;;2.33;2.33;;;;;8.94;63.53;100766.78;5074562;27;45877;-77
2021/12/06 02:12:35;;;;;;;;;5.00;3.00;;;;;8.96;63.63;100776.47;5075384;27;45431;-77
2021/12/06 02:15:06;;;;;;;;;4.67;2.00;;;;;8.99;63.57;100773.34;5074759;28;45850;-77
2021/12/06 02:17:38;;;;;;;;;2.67;2.67;;;;;8.98;63.68;100779.88;5066952;28;45709;-77
2021/12/06 02:20:25;;;;;;;;;3.00;3.00;;;;;8.98;63.50;100773.53;5075325;27;46631;-77
2021/12/06 02:22:50;;;;;;;;;3.00;3.00;;;;;8.94;63.85;100767.63;5070297;28;45592;-77
2021/12/06 02:25:18;;;;;;;;;4.00;2.33;;;;;8.99;63.71;100780.72;5075815;28;45741;-77
2021/12/06 02:27:46;;;;;;;;;4.00;4.00;;;;;9.00;63.79;100774.19;5075851;28;45732;-77
2021/12/06 02:30:14;;;;;;;;;4.00;3.00;;;;;9.05;63.58;100790.03;5075568;27;45858;-76
2021/12/06 02:32:40;;;;;;;;;3.00;2.00;;;;;9.05;63.43;100784.56;5061389;28;45465;-72
2021/12/06 02:35:12;;;;;;;;;3.67;2.67;;;;;9.09;63.54;100788.59;5087023;27;45501;-71
2021/12/06 02:37:38;;;;;;;;;4.33;4.00;;;;;9.05;63.51;100773.59;5071184;27;45543;-71
2021/12/06 02:40:09;;;;;;;;;4.67;4.33;;;;;9.05;63.24;100782.66;5067982;27;45809;-73
2021/12/06 02:42:35;;;;;;;;;5.00;4.00;;;;;8.98;63.92;100771.66;5069810;28;45701;-76
2021/12/06 02:45:01;;;;;;;;;5.00;5.00;;;;;9.10;63.44;100779.31;5071832;27;45417;-72
2021/12/06 02:47:26;;;;;;;;;4.67;4.67;;;;;9.11;62.95;100770.06;5061539;28;46720;-75
2021/12/06 02:49:52;;;;;;;;;8.67;5.00;;;;;9.08;63.05;100765.84;5070753;27;45573;-72
2021/12/06 02:52:18;;;;;;;;;6.33;4.00;;;;;9.10;63.05;100763.75;5070990;28;45425;-71
2021/12/06 02:54:43;;;;;;;;;4.33;4.00;;;;;9.15;63.04;100777.69;5071187;27;45773;-72
2021/12/06 02:59:39;;;;;;;;;5.33;4.00;;;;;9.16;62.88;100781.25;5070870;27;46390;-71
2021/12/06 03:02:10;;;;;;;;;7.67;5.67;;;;;9.17;63.16;100789.25;5071142;27;45882;-72
2021/12/06 03:04:36;;;;;;;;;4.67;3.67;;;;;9.19;63.33;100791.78;5071122;27;45496;-70
2021/12/06 03:07:03;;;;;;;;;4.67;4.67;;;;;9.15;63.16;100802.31;5070673;27;45665;-71
2021/12/06 03:09:33;;;;;;;;;4.67;4.67;;;;;9.17;63.18;100802.09;5069374;27;47973;-72
2021/12/06 03:12:15;;;;;;;;;10.67;5.00;;;;;9.20;63.45;100812.66;5069513;27;45441;-71
2021/12/06 03:14:47;;;;;;;;;6.33;5.00;;;;;9.16;63.41;100803.16;5069293;28;45486;-73
2021/12/06 03:17:16;;;;;;;;;8.67;4.00;;;;;9.18;63.38;100823.81;5070075;27;45574;-72
2021/12/06 03:19:42;;;;;;;;;7.00;4.67;;;;;9.15;63.45;100812.41;5070927;27;45562;-73
2021/12/06 03:22:10;;;;;;;;;6.67;5.00;;;;;9.18;63.83;100821.06;5066991;27;46872;-71
2021/12/06 03:24:36;;;;;;;;;6.00;4.33;;;;;9.19;63.37;100813.69;5060596;27;45490;-73
2021/12/06 03:27:02;;;;;;;;;5.33;5.33;;;;;9.24;63.57;100824.06;5055377;28;45823;-69
2021/12/06 03:29:28;;;;;;;;;3.33;3.33;;;;;9.25;63.87;100823.88;5057303;28;45799;-69
2021/12/06 03:31:53;;;;;;;;;3.67;2.67;;;;;9.25;63.37;100823.00;5055768;28;45767;-70
2021/12/06 03:34:20;;;;;;;;;6.00;5.00;;;;;9.24;63.22;100810.38;5064172;28;45400;-68
2021/12/06 03:36:46;;;;;;;;;4.33;4.00;;;;;9.27;63.43;100810.00;5066837;27;45824;-69
2021/12/06 03:39:20;;;;;;;;;4.67;4.67;;;;;9.24;63.29;100811.22;5066819;27;46283;-68
2021/12/06 03:41:48;;;;;;;;;5.00;4.00;;;;;9.25;63.28;100815.66;5069633;27;45741;-69
2021/12/06 03:44:13;;;;;;;;;6.00;5.00;;;;;9.22;63.18;100812.47;5069059;28;45731;-68
2021/12/06 03:46:40;;;;;;;;;7.00;5.00;;;;;9.21;63.40;100817.09;5071241;28;45428;-75
2021/12/06 03:49:09;;;;;;;;;6.67;4.00;;;;;9.16;63.24;100825.03;5067232;28;47466;-74
2021/12/06 03:51:35;;;;;;;;;3.00;3.00;;;;;9.20;63.34;100823.59;5067328;28;45432;-80
2021/12/06 03:54:00;;;;;;;;;3.33;3.33;;;;;9.22;63.34;100832.47;5073024;27;45405;-79
2021/12/06 03:56:26;;;;;;;;;4.00;4.00;;;;;9.26;63.37;100828.28;5081726;28;47664;-81
2021/12/06 03:58:51;;;;;;;;;7.00;6.00;;;;;9.30;63.43;100831.47;5077103;28;45869;-79
2021/12/06 04:01:17;;;;;;;;;5.33;5.33;;;;;9.24;63.39;100824.91;5081841;27;45536;-80
2021/12/06 04:03:43;;;;;;;;;6.67;5.33;;;;;9.27;63.06;100829.97;5072671;28;45527;-81
2021/12/06 04:06:10;;;;;;;;;3.33;3.33;;;;;9.23;63.10;100833.31;5081333;28;45497;-80
2021/12/06 04:08:39;;;;;;;;;7.67;5.00;;;;;9.33;63.24;100852.97;5074954;28;46858;-79
2021/12/06 04:11:06;;;;;;;;;4.67;4.67;;;;;9.30;63.03;100865.16;5080395;28;45460;-80
2021/12/06 04:13:32;;;;;;;;;6.67;5.67;;;;;9.33;63.27;100872.97;5085195;27;45436;-79
2021/12/06 04:15:58;;;;;;;;;4.00;4.00;;;;;9.34;63.27;100869.19;5074597;28;45583;-78
2021/12/06 04:18:24;;;;;;;;;4.00;3.33;;;;;9.33;63.09;100872.97;5074400;27;45471;-79
2021/12/06 04:20:49;;;;;;;;;5.67;4.00;;;;;9.33;63.24;100870.22;5079319;27;45813;-80
2021/12/06 04:23:15;;;;;;;;;3.67;3.00;;;;;9.34;63.22;100877.41;5065963;28;45824;-81
2021/12/06 04:25:41;;;;;;;;;4.67;4.67;;;;;9.33;62.97;100872.97;5074440;28;45443;-79
2021/12/06 04:28:08;;;;;;;;;6.00;6.00;;;;;9.39;63.24;100885.03;5074312;28;47294;-80
2021/12/06 04:30:38;;;;;;;;;4.00;4.00;;;;;9.31;62.89;100864.13;5075353;27;45457;-79
2021/12/06 04:33:04;;;;;;;;;6.00;6.00;;;;;9.40;62.89;100880.38;5078620;28;45812;-80
2021/12/06 04:35:31;;;;;;;;;3.67;3.67;;;;;9.37;63.01;100870.69;5080283;27;45382;-81
2021/12/06 04:37:56;;;;;;;;;5.00;4.00;;;;;9.43;62.72;100882.72;5080624;27;45398;-79
2021/12/06 04:40:22;;;;;;;;;6.33;6.00;;;;;9.40;63.17;100885.88;5080806;28;45458;-79
2021/12/06 04:42:48;;;;;;;;;8.00;5.00;;;;;9.41;63.04;100888.41;5082070;28;45373;-80
2021/12/06 04:45:18;;;;;;;;;7.33;5.00;;;;;9.44;62.93;100911.81;5080988;27;45443;-83
2021/12/06 04:47:43;;;;;;;;;6.67;6.67;;;;;9.42;62.70;100914.75;5080292;27;46073;-81
2021/12/06 04:50:12;;;;;;;;;8.00;6.00;;;;;9.41;62.90;100915.78;5076976;28;46042;-81
2021/12/06 04:52:38;;;;;;;;;5.33;3.33;;;;;9.42;62.78;100916.63;5081169;28;44874;-82
2021/12/06 04:55:18;;;;;;;;;9.33;7.33;;;;;9.34;63.24;100896.56;5079314;28;47174;-81
2021/12/06 04:57:48;;;;;;;;;7.33;6.67;;;;;9.39;62.81;100911.56;5076219;28;45378;-80
2021/12/06 05:00:18;;;;;;;;;6.67;5.67;;;;;9.35;62.66;100906.44;5078183;27;45716;-81
2021/12/06 05:02:45;;;;;;;;;4.33;4.33;;;;;9.28;62.64;100901.97;5080892;28;45425;-80
2021/12/06 05:05:19;;;;;;;;;5.67;5.00;;;;;9.30;62.93;100925.38;5100478;27;47291;-79
2021/12/06 05:07:50;;;;;;;;;6.00;5.00;;;;;9.27;63.14;100931.25;5078005;27;45410;-83
2021/12/06 05:10:16;;;;;;;;;6.67;5.00;;;;;9.14;63.15;100915.53;5078254;28;45732;-82
2021/12/06 05:12:43;;;;;;;;;7.00;5.67;;;;;9.24;62.93;100937.09;5076755;27;45540;-80
2021/12/06 05:15:09;;;;;;;;;6.33;4.33;;;;;9.17;63.04;100922.50;5071994;28;45682;-82
2021/12/06 05:17:35;;;;;;;;;6.00;6.00;;;;;9.14;63.39;100925.63;5079324;27;45509;-81
2021/12/06 05:20:02;;;;;;;;;10.00;7.33;;;;;9.17;63.20;100919.75;5080850;28;45372;-78
2021/12/06 05:22:28;;;;;;;;;7.00;5.33;;;;;9.21;63.18;100932.03;5097762;27;45574;-79
2021/12/06 05:24:54;;;;;;;;;4.67;4.67;;;;;9.21;62.85;100934.75;5079303;28;46089;-80
2021/12/06 05:27:26;;;;;;;;;6.67;5.67;;;;;9.16;62.67;100934.47;5077277;28;47181;-81
2021/12/06 05:29:56;;;;;;;;;6.00;6.00;;;;;9.16;63.00;100943.56;5074795;28;45539;-82
2021/12/06 05:32:25;;;;;;;;;7.00;5.33;;;;;9.15;62.97;100946.50;5074167;28;45891;-80
2021/12/06 05:34:57;;;;;;;;;16.00;10.33;;;;;9.18;62.85;100965.25;5073417;28;46275;-81
2021/12/06 05:37:23;;;;;;;;;7.67;6.00;;;;;9.14;63.27;100959.31;5095123;27;47898;-81
2021/12/06 05:39:48;;;;;;;;;7.67;7.67;;;;;9.14;63.24;100961.19;5077754;28;45693;-79
2021/12/06 05:42:14;;;;;;;;;10.00;8.33;;;;;9.13;63.33;100962.22;5075786;27;45710;-78
2021/12/06 05:44:41;;;;;;;;;8.00;6.00;;;;;9.09;63.44;100960.94;5077619;27;45844;-78
2021/12/06 05:47:07;;;;;;;;;8.67;5.67;;;;;9.14;63.24;100970.25;5078637;27;45456;-80
2021/12/06 05:49:33;;;;;;;;;5.00;4.67;;;;;9.17;63.06;100963.56;5067021;27;45730;-77
2021/12/06 05:51:58;;;;;;;;;9.00;7.00;;;;;9.06;63.02;100951.22;5072295;28;45781;-77
2021/12/06 05:54:25;;;;;;;;;10.67;7.67;;;;;9.20;63.34;100974.09;5063546;27;45531;-76
2021/12/06 05:56:51;;;;;;;;;7.67;6.33;;;;;9.17;63.00;100971.75;5075489;27;45367;-78
2021/12/06 05:59:16;;;;;;;;;7.33;4.00;;;;;9.18;63.27;100971.56;5073543;27;45435;-79
2021/12/06 06:01:42;;;;;;;;;8.67;6.33;;;;;9.18;63.17;100973.47;5062674;28;45824;-72
2021/12/06 06:04:08;;;;;;;;;8.00;5.00;;;;;9.18;63.00;100973.47;5067447;28;45848;-70
2021/12/06 06:06:36;;;;;;;;;8.67;7.67;;;;;9.18;63.10;100973.47;5069089;27;47196;-70
2021/12/06 06:09:03;;;;;;;;;6.67;5.67;;;;;9.19;63.39;100981.47;5070926;28;45331;-72
2021/12/06 06:11:28;;;;;;;;;8.00;6.00;;;;;9.22;63.08;100977.50;5070648;27;45725;-70
2021/12/06 06:13:54;;;;;;;;;8.67;6.67;;;;;9.23;63.41;100992.03;5071220;27;45727;-71
2021/12/06 06:16:22;;;;;;;;;8.33;7.00;;;;;9.23;63.39;100992.03;5070466;28;46052;-71
2021/12/06 06:18:50;;;;;;;;;4.33;4.33;;;;;9.18;63.15;100987.97;5077930;27;45770;-72
2021/12/06 06:21:16;;;;;;;;;10.67;6.00;;;;;9.28;63.45;100993.16;5072362;27;45516;-75
2021/12/06 06:23:43;;;;;;;;;6.00;6.00;;;;;9.30;62.82;100985.59;5064997;27;45980;-76
2021/12/06 06:26:08;;;;;;;;;8.67;6.33;;;;;9.35;62.69;100996.78;5072290;27;45416;-73
2021/12/06 06:28:33;;;;;;;;;6.67;6.33;;;;;9.37;63.20;100999.31;5070306;27;45758;-72
2021/12/06 06:30:59;;;;;;;;;9.33;8.33;;;;;9.35;63.16;100999.53;5086635;27;45356;-72
2021/12/06 06:33:25;;;;;;;;;15.33;10.00;;;;;9.31;63.27;100992.75;5072783;27;45733;-81
2021/12/06 06:35:51;;;;;;;;;10.00;9.00;;;;;9.26;63.43;100997.94;5073071;27;45495;-70
2021/12/06 06:38:17;;;;;;;;;8.00;6.33;;;;;9.19;63.07;100988.81;5067746;27;45879;-71
2021/12/06 06:40:44;;;;;;;;;7.33;5.67;;;;;9.17;63.21;101002.69;5055455;28;45515;-72
2021/12/06 06:43:09;;;;;;;;;8.00;8.00;;;;;9.11;63.66;100999.91;5068007;27;45774;-70
2021/12/06 06:45:35;;;;;;;;;9.67;7.00;;;;;9.02;63.16;100996.44;5060013;27;45471;-72
2021/12/06 06:48:00;;;;;;;;;9.00;6.33;;;;;8.95;63.16;100999.09;5056768;28;45508;-70
2021/12/06 06:50:26;;;;;;;;;12.00;7.00;;;;;8.88;63.46;101005.50;5067743;27;46062;-73
2021/12/06 06:52:52;;;;;;;;;5.67;5.00;;;;;8.80;63.26;100998.25;5064471;28;45800;-73
2021/12/06 06:55:19;;;;;;;;;8.00;5.00;;;;;8.73;63.62;101011.03;5063711;28;45917;-73
2021/12/06 06:57:46;;;;;;;;;9.67;6.67;;;;;8.61;64.36;101030.63;5062142;28;45621;-75
2021/12/06 07:00:26;;;;;;;;;7.33;4.67;;;;;8.52;64.44;101033.63;5058643;28;45690;-73
2021/12/06 07:02:52;;;;;;;;;10.00;8.00;;;;;8.50;65.22;101038.44;5067269;28;45832;-71
2021/12/06 07:05:17;;;;;;;;;8.00;6.00;;;;;8.49;65.42;101048.53;5065943;27;46036;-72
2021/12/06 07:07:43;;;;;;;;;5.00;4.00;;;;;8.48;65.23;101044.94;5059553;28;47264;-72
2021/12/06 07:10:09;;;;;;;;;7.67;5.33;;;;;8.47;65.92;101040.53;5059667;28;45796;-74
2021/12/06 07:12:42;;;;;;;;;7.67;7.67;;;;;8.48;65.47;101041.38;5073592;27;46079;-72
2021/12/06 07:15:12;;;;;;;;;6.67;6.67;;;;;8.55;64.93;101047.78;5060634;28;46189;-70
2021/12/06 07:17:41;;;;;;;;;6.33;5.67;;;;;8.54;65.77;101046.06;5054366;28;45416;-69
2021/12/06 07:20:08;;;;;;;;;8.33;7.33;;;;;8.55;65.32;101046.91;5070955;27;45586;-71
2021/12/06 07:22:34;;;;;;;;;8.67;7.67;;;;;8.56;65.56;101054.09;5069664;28;45718;-77
2021/12/06 07:24:59;;;;;;;;;9.00;5.00;;;;;8.55;64.95;101052.38;5068464;28;46978;-70
2021/12/06 07:27:25;;;;;;;;;9.67;7.33;;;;;8.50;65.35;101050.22;5063632;27;45559;-72
2021/12/06 07:29:50;;;;;;;;;6.67;5.67;;;;;8.54;65.93;101070.69;5077102;27;45438;-74
2021/12/06 07:32:16;;;;;;;;;11.67;11.00;;;;;8.57;65.72;101067.56;5069716;27;45784;-72
2021/12/06 07:34:41;;;;;;;;;5.00;5.00;;;;;8.59;65.15;101061.91;5063180;28;46435;-73
2021/12/06 07:37:07;;;;;;;;;9.33;7.67;;;;;8.59;64.97;101054.59;5070265;27;45764;-75
2021/12/06 07:39:33;;;;;;;;;9.67;7.67;;;;;8.61;65.36;101059.84;5067801;27;45566;-76
2021/12/06 07:41:59;;;;;;;;;9.33;8.00;;;;;8.63;64.93;101063.25;5076892;27;45619;-74
2021/12/06 07:44:25;;;;;;;;;7.33;7.33;;;;;8.66;64.90;101068.34;5075978;27;46720;-73
2021/12/06 07:46:52;;;;;;;;;12.00;8.67;;;;;8.72;64.76;101058.53;5064195;28;45417;-76
2021/12/06 07:49:18;;;;;;;;;12.00;9.00;;;;;8.74;64.49;101062.78;5070386;28;45660;-75
2021/12/06 07:51:43;;;;;;;;;11.00;10.67;;;;;8.77;64.94;101056.06;5073909;27;45623;-76
2021/12/06 07:54:09;;;;;;;;;13.33;12.00;;;;;8.83;64.82;101069.84;5074002;27;46482;-74
2021/12/06 07:56:34;;;;;;;;;16.33;11.00;;;;;8.92;64.20;101067.88;5071717;27;45782;-77
2021/12/06 07:59:00;;;;;;;;;10.33;9.67;;;;;8.95;64.06;101058.41;5071357;27;45804;-74
2021/12/06 08:01:25;;;;;;;;;11.67;9.33;;;;;9.09;64.02;101063.03;5075974;28;45872;-75
2021/12/06 08:03:51;;;;;;;;;10.67;8.00;;;;;9.20;63.38;101067.16;5074416;28;46334;-75
2021/12/06 08:06:17;;;;;;;;;10.67;9.33;;;;;9.24;62.98;101056.69;5076694;28;45438;-75
2021/12/06 08:08:44;;;;;;;;;20.67;17.67;;;;;9.28;63.38;101053.38;5074942;27;45378;-76
2021/12/06 08:11:15;;;;;;;;;19.00;15.33;;;;;9.40;62.70;101044.63;5083644;27;45827;-75
2021/12/06 08:13:44;;;;;;;;;20.33;17.67;;;;;9.50;62.59;101046.00;5074025;27;47268;-74
2021/12/06 08:16:16;;;;;;;;;20.33;16.00;;;;;9.58;62.47;101056.00;5076839;28;45430;-74
2021/12/06 08:18:44;;;;;;;;;15.00;13.33;;;;;9.69;62.33;101060.94;5071108;27;45366;-75
2021/12/06 08:21:10;;;;;;;;;8.67;8.67;;;;;9.83;62.30;101061.06;5067120;28;45483;-74
2021/12/06 08:23:36;;;;;;;;;14.00;11.00;;;;;9.94;61.73;101035.03;5073109;27;45820;-76
2021/12/06 08:26:04;;;;;;;;;14.33;10.67;;;;;10.15;61.52;101026.78;5072518;28;45460;-75
2021/12/06 08:28:31;;;;;;;;;13.33;11.67;;;;;10.30;60.95;101026.69;5072974;28;45746;-74
2021/12/06 08:30:56;;;;;;;;;11.33;10.00;;;;;10.41;60.22;101022.56;5085805;27;46234;-75
2021/12/06 08:33:22;;;;;;;;;15.67;8.67;;;;;10.53;59.85;101034.66;5073385;27;45407;-72
2021/12/06 08:35:52;;;;;;;;;23.33;14.00;;;;;10.65;59.76;101045.09;5073580;27;45853;-75
2021/12/06 08:38:20;;;;;;;;;19.67;13.67;;;;;10.86;59.93;101049.63;5071134;27;45374;-76
2021/12/06 08:40:46;;;;;;;;;17.00;11.33;;;;;11.29;58.55;101052.13;5072789;27;45458;-76
2021/12/06 08:43:17;;;;;;;;;12.33;12.33;;;;;11.47;57.26;101043.31;5073146;27;45572;-77
2021/12/06 08:46:05;;;;;;;;;10.00;9.00;;;;;11.64;56.95;101052.00;5072952;27;45566;-76
2021/12/06 08:48:34;;;;;;;;;12.67;10.67;;;;;11.75;56.67;101045.03;5073616;28;45716;-75
2021/12/06 08:51:04;;;;;;;;;11.00;8.00;;;;;11.82;55.29;101024.75;5071648;27;45528;-75
2021/12/06 08:53:30;;;;;;;;;8.67;8.33;;;;;11.94;55.30;101029.66;5071826;28;47084;-74
2021/12/06 08:55:56;;;;;;;;;10.67;9.67;;;;;11.91;55.39;101028.13;5072148;27;45678;-74
2021/12/06 08:58:22;;;;;;;;;8.00;8.00;;;;;11.94;55.28;101029.66;5073859;27;45366;-76
2021/12/06 09:00:48;;;;;;;;;8.33;6.33;;;;;11.93;55.28;101022.47;5070156;28;46250;-73
2021/12/06 09:03:14;;;;;;;;;7.00;7.00;;;;;11.95;55.04;101025.88;5070870;27;46077;-74
2021/12/06 09:05:43;;;;;;;;;7.00;5.67;;;;;12.01;55.67;101028.59;5071956;27;45783;-75
2021/12/06 09:08:09;;;;;;;;;8.67;7.67;;;;;12.06;55.18;101027.97;5072938;27;45384;-76
2021/12/06 09:10:35;;;;;;;;;7.00;7.00;;;;;11.98;54.64;101028.19;5068158;28;45763;-75
2021/12/06 09:13:02;;;;;;;;;11.00;9.00;;;;;12.00;55.17;101034.31;5069410;27;45815;-75
2021/12/06 09:15:28;;;;;;;;;11.67;8.33;;;;;12.02;54.98;101045.97;5071617;27;45538;-75
2021/12/06 09:17:55;;;;;;;;;8.00;8.00;;;;;11.91;55.34;101041.03;5072464;27;45762;-77
2021/12/06 09:20:24;;;;;;;;;13.00;11.00;;;;;11.95;55.13;101040.44;5069022;27;45417;-76
2021/12/06 09:22:50;;;;;;;;;9.67;6.67;;;;;11.96;55.37;101050.38;5088402;27;47101;-76
2021/12/06 09:25:17;;;;;;;;;10.00;10.00;;;;;11.90;55.39;101050.34;5070319;28;45959;-76
2021/12/06 09:27:44;;;;;;;;;11.67;10.00;;;;;11.93;55.16;101030.72;5071060;27;45511;-77
2021/12/06 09:30:14;;;;;;;;;10.67;9.00;;;;;11.90;55.18;101025.59;5072769;27;45842;-76
2021/12/06 09:32:40;;;;;;;;;12.00;9.00;;;;;11.86;54.89;101046.34;5071318;28;45769;-76
2021/12/06 09:35:09;;;;;;;;;11.00;9.33;;;;;11.73;55.02;101037.00;5072092;27;45433;-75
2021/12/06 09:37:36;;;;;;;;;9.33;8.67;;;;;11.72;54.23;101042.72;5068960;27;45944;-75
2021/12/06 09:40:04;;;;;;;;;8.33;8.33;;;;;11.65;54.28;101037.22;5066845;28;45937;-76
2021/12/06 09:42:33;;;;;;;;;8.00;8.00;;;;;11.57;54.36;101024.53;5070253;27;45532;-75
2021/12/06 09:44:59;;;;;;;;;9.67;7.00;;;;;11.58;54.39;101033.59;5066687;28;45832;-75
2021/12/06 09:47:27;;;;;;;;;9.00;6.33;;;;;11.59;54.29;101033.41;5071396;27;45718;-77
2021/12/06 09:49:53;;;;;;;;;9.67;9.67;;;;;11.57;54.23;101037.41;5071948;27;45629;-72
2021/12/06 09:52:19;;;;;;;;;11.67;7.67;;;;;11.59;54.63;101038.06;5070846;27;46031;-73
2021/12/06 09:54:44;;;;;;;;;12.67;9.67;;;;;11.47;53.96;101013.94;5071912;27;45771;-74
2021/12/06 09:57:11;;;;;;;;;7.00;7.00;;;;;11.53;53.54;101028.75;5071819;27;45413;-75
2021/12/06 09:59:38;;;;;;;;;9.00;9.00;;;;;11.48;53.74;101034.88;5071362;27;45691;-76
2021/12/06 10:02:08;;;;;;;;;8.67;8.33;;;;;11.48;54.04;101031.25;5072690;27;46244;-76
2021/12/06 10:04:38;;;;;;;;;8.00;8.00;;;;;11.51;53.99;101021.75;5071531;27;45578;-78
2021/12/06 10:07:07;;;;;;;;;8.33;8.33;;;;;11.82;53.64;101043.16;5071259;27;45477;-77
2021/12/06 10:09:36;;;;;;;;;11.33;10.33;;;;;11.89;53.21;101030.25;5071543;27;45788;-76
2021/12/06 10:12:02;;;;;;;;;13.33;10.00;;;;;12.03;53.14;101041.28;5071375;27;45708;-76
2021/12/06 10:14:28;;;;;;;;;14.00;13.00;;;;;12.10;53.10;101031.97;5071144;27;45790;-73
2021/12/06 10:16:54;;;;;;;;;11.00;8.67;;;;;12.02;52.54;101015.72;5064227;28;45792;-72
2021/12/06 10:19:21;;;;;;;;;12.00;10.00;;;;;12.05;53.15;101009.78;5070109;27;45781;-79
2021/12/06 10:21:48;;;;;;;;;8.00;6.67;;;;;11.92;51.89;100985.03;5072538;28;45379;-79
2021/12/06 10:24:25;;;;;;;;;12.67;7.00;;;;;11.93;51.81;100990.34;5076036;27;45688;-81
2021/12/06 10:27:02;;;;;;;;;7.00;7.00;;;;;12.04;52.20;100994.34;5071066;28;45893;-75
2021/12/06 10:29:38;;;;;;;;;10.67;9.00;;;;;12.13;51.68;101001.31;5085911;27;45799;-73
2021/12/06 10:32:11;;;;;;;;;9.67;8.67;;;;;12.16;51.14;100989.88;5063467;28;45961;-76
2021/12/06 10:34:37;;;;;;;;;8.00;8.00;;;;;12.22;51.05;100973.63;5069199;27;45645;-76
2021/12/06 10:37:02;;;;;;;;;9.33;8.67;;;;;12.23;50.85;100964.28;5071492;27;45809;-77
2021/12/06 10:39:35;;;;;;;;;11.67;11.67;;;;;12.16;51.32;100965.16;5066422;27;45496;-74
2021/12/06 10:42:01;;;;;;;;;9.00;9.00;;;;;12.08;51.58;100942.53;5058041;28;45880;-75
2021/12/06 10:44:27;;;;;;;;;12.67;12.67;;;;;12.33;51.05;100959.19;5061289;28;45484;-76
2021/12/06 10:46:52;;;;;;;;;10.00;10.00;;;;;12.49;51.17;100955.97;5058625;28;46967;-75
2021/12/06 10:49:21;;;;;;;;;11.00;8.33;;;;;12.53;50.87;100946.22;5066144;28;45680;-75
2021/12/06 10:51:48;;;;;;;;;10.67;9.00;;;;;12.45;50.36;100924.44;5069460;28;45699;-75
2021/12/06 10:54:27;;;;;;;;;8.00;8.00;;;;;12.59;50.52;100930.75;5070272;27;45532;-77
2021/12/06 10:56:55;;;;;;;;;8.00;7.00;;;;;12.58;50.53;100936.47;5068111;28;45995;-74
2021/12/06 10:59:27;;;;;;;;;9.00;9.00;;;;;12.55;50.67;100913.00;5071568;28;45782;-74
2021/12/06 11:01:57;;;;;;;;;10.67;7.00;;;;;12.79;50.63;100916.91;5068570;27;45807;-72
2021/12/06 11:04:26;;;;;;;;;8.00;7.00;;;;;12.83;50.67;100934.69;5058296;27;45594;-76
2021/12/06 11:06:58;;;;;;;;;9.00;8.00;;;;;12.89;50.21;100924.69;5064243;27;45714;-75
2021/12/06 11:09:26;;;;;;;;;8.33;8.33;;;;;12.97;49.84;100924.44;5064403;28;46142;-75
2021/12/06 11:11:59;;;;;;;;;10.33;8.00;;;;;12.85;49.64;100913.28;5066005;27;45758;-74
2021/12/06 11:14:33;;;;;;;;;9.00;8.00;;;;;12.91;49.79;100916.22;5059640;27;46116;-75
2021/12/06 11:17:11;;;;;;;;;9.33;9.33;;;;;12.88;49.95;100907.31;5061367;27;45526;-75
2021/12/06 11:19:38;;;;;;;;;8.00;7.67;;;;;12.96;50.89;100913.63;5062107;27;45769;-75
2021/12/06 11:22:07;;;;;;;;;11.67;10.00;;;;;12.88;50.91;100910.06;5065854;27;46420;-75
2021/12/06 11:24:39;;;;;;;;;11.67;10.00;;;;;13.00;50.13;100917.66;5058903;27;46013;-77
2021/12/06 11:27:14;;;;;;;;;10.33;9.00;;;;;13.18;50.48;100923.25;5067685;27;45830;-76
2021/12/06 11:29:48;;;;;;;;;7.67;7.67;;;;;13.39;49.34;100921.22;5066202;27;45882;-75
2021/12/06 11:32:24;;;;;;;;;14.33;9.00;;;;;13.55;49.32;100912.41;5067327;27;46038;-73
2021/12/06 11:34:52;;;;;;;;;9.00;8.33;;;;;13.53;49.12;100898.03;5063744;27;46069;-76
2021/12/06 11:37:25;;;;;;;;;10.67;10.67;;;;;13.52;48.74;100898.25;5060604;27;46885;-75
2021/12/06 11:40:15;;;;;;;;;7.67;7.33;;;;;13.47;48.83;100870.50;5062422;27;45900;-74
2021/12/06 11:43:04;;;;;;;;;14.00;11.67;;;;;13.59;49.03;100883.34;5064528;27;47116;-74
2021/12/06 11:45:31;;;;;;;;;9.00;8.33;;;;;13.58;49.26;100873.38;5059011;28;45976;-76